Taber, Idaho
Current Conditions -  °F | °C
As of 6:53 PM on Wednesday 17 Dec 2014 (Local Time) from KIDA Reporting Station
Light Fog Light Fog  
Wind Chill: 23°   Ceiling: Unl
Heat Index: 23°   Visibility: 7mi
Dew Point: 20°   Wind: 0mph
Humidity: 88%   Direction: NA
Pressure: 30.01"   Gusts: NA
Location:  43.2718°N, 112.405°W
Report Text: KIDA 180153Z 00000KT 7SM BCFG FEW012 SCT060 M05/M07 A3001 RMK AO2 SLP199 I1001 T10501067
Loading
Personal Weather Stations






























Interactive Weather Map New forecast layout! Learn more

10-Day Weather Forecast

Advertisements
Track Severe Weather on mobile